createdAt,value
2022-12-13T00:01:57.299Z,9.93
2022-12-13T00:04:25.242Z,10.65
2022-12-13T00:06:54.307Z,13.63
2022-12-13T00:09:22.495Z,12.63
2022-12-13T00:11:50.476Z,13.73
2022-12-13T00:14:22.646Z,12.57
2022-12-13T00:16:50.697Z,13.15
2022-12-13T00:19:18.753Z,17.40
2022-12-13T00:21:46.173Z,17.58
2022-12-13T00:24:13.898Z,15.68
2022-12-13T00:26:41.364Z,16.00
2022-12-13T00:29:11.278Z,18.38
2022-12-13T00:34:27.314Z,19.35
2022-12-13T00:36:55.046Z,17.77
2022-12-13T00:39:25.354Z,18.85
2022-12-13T00:41:52.603Z,18.83
2022-12-13T00:44:21.624Z,19.25
2022-12-13T00:46:52.676Z,19.60
2022-12-13T00:49:20.415Z,20.00
2022-12-13T00:51:49.861Z,24.80
2022-12-13T00:54:17.403Z,20.55
2022-12-13T00:56:45.543Z,24.27
2022-12-13T00:59:15.364Z,22.33
2022-12-13T01:01:42.713Z,24.90
2022-12-13T01:04:11.456Z,24.65
2022-12-13T01:06:44.813Z,24.88
2022-12-13T01:09:22.625Z,21.17
2022-12-13T01:14:37.463Z,23.23
2022-12-13T01:17:05.039Z,26.42
2022-12-13T01:19:34.175Z,26.90
2022-12-13T01:22:05.064Z,26.67
2022-12-13T01:24:34.346Z,28.40
2022-12-13T01:27:04.065Z,27.95
2022-12-13T01:29:33.606Z,25.00
2022-12-13T01:32:02.974Z,28.95
2022-12-13T01:34:31.251Z,27.40
2022-12-13T01:39:40.815Z,34.70
2022-12-13T01:42:11.295Z,32.85
2022-12-13T01:44:56.568Z,31.23
2022-12-13T01:47:30.256Z,32.70
2022-12-13T01:50:01.564Z,34.03
2022-12-13T01:52:33.785Z,32.50
2022-12-13T01:55:06.791Z,34.33
2022-12-13T01:57:40.805Z,37.00
2022-12-13T02:00:11.787Z,34.97
2022-12-13T02:05:36.488Z,47.53
2022-12-13T02:08:05.757Z,39.78
2022-12-13T02:10:33.103Z,40.15
2022-12-13T02:16:02.484Z,44.50
2022-12-13T02:18:52.594Z,36.90
2022-12-13T02:24:52.633Z,39.10
2022-12-13T02:27:43.378Z,45.28
2022-12-13T02:30:21.174Z,39.10
2022-12-13T02:33:27.755Z,42.35
2022-12-13T02:39:37.255Z,37.25
2022-12-13T02:42:47.595Z,40.22
2022-12-13T02:45:21.353Z,41.47
2022-12-13T02:47:52.415Z,41.05
2022-12-13T02:50:22.306Z,42.22
2022-12-13T02:52:51.493Z,41.92
2022-12-13T02:55:25.206Z,42.25
2022-12-13T02:57:57.544Z,37.15
2022-12-13T03:00:58.843Z,39.10
2022-12-13T03:03:33.497Z,37.85
2022-12-13T03:09:28.733Z,35.42
2022-12-13T03:12:41.880Z,38.35
2022-12-13T03:15:43.857Z,42.92
2022-12-13T03:18:24.276Z,38.70
2022-12-13T03:21:03.675Z,39.90
2022-12-13T03:23:31.594Z,40.88
2022-12-13T03:26:07.444Z,44.80
2022-12-13T03:28:35.829Z,38.65
2022-12-13T03:31:03.157Z,42.75
2022-12-13T03:33:30.533Z,43.78
2022-12-13T03:36:19.143Z,40.92
2022-12-13T03:38:47.782Z,39.75
2022-12-13T03:41:19.036Z,41.65
2022-12-13T03:49:12.358Z,40.55
2022-12-13T03:54:28.441Z,40.20
2022-12-13T03:56:55.654Z,44.40
2022-12-13T03:59:22.874Z,39.95
2022-12-13T04:01:50.127Z,38.22
2022-12-13T04:04:17.553Z,43.25
2022-12-13T04:06:45.344Z,41.80
2022-12-13T04:09:13.863Z,43.22
2022-12-13T04:14:42.713Z,48.72
2022-12-13T04:17:09.873Z,39.85
2022-12-13T04:19:39.165Z,39.58
2022-12-13T04:22:06.444Z,44.60
2022-12-13T04:24:34.643Z,38.83
2022-12-13T04:27:02.290Z,44.30
2022-12-13T04:29:34.669Z,42.72
2022-12-13T04:32:03.924Z,42.95
2022-12-13T04:34:37.502Z,42.47
2022-12-13T04:37:06.793Z,44.90
2022-12-13T04:39:34.722Z,46.13
2022-12-13T04:42:02.457Z,40.15
2022-12-13T04:44:36.453Z,38.83
2022-12-13T04:47:04.681Z,41.00
2022-12-13T04:49:32.183Z,36.67
2022-12-13T04:52:01.544Z,34.88
2022-12-13T04:54:35.521Z,38.40
2022-12-13T04:57:06.836Z,39.08
2022-12-13T04:59:34.749Z,41.38
2022-12-13T05:02:02.512Z,43.67
2022-12-13T05:04:32.927Z,39.42
2022-12-13T05:07:02.549Z,45.10
2022-12-13T05:09:30.118Z,40.30
2022-12-13T05:12:01.124Z,42.33
2022-12-13T05:14:31.797Z,40.53
2022-12-13T05:17:00.798Z,41.05
2022-12-13T05:19:30.929Z,40.88
2022-12-13T05:22:02.036Z,40.95
2022-12-13T05:24:31.428Z,38.00
2022-12-13T05:26:59.471Z,35.72
2022-12-13T05:29:28.205Z,43.05
2022-12-13T05:31:55.756Z,47.00
2022-12-13T05:34:23.199Z,41.65
2022-12-13T05:36:51.249Z,41.38
2022-12-13T05:39:28.289Z,42.10
2022-12-13T05:42:01.470Z,43.78
2022-12-13T05:44:33.720Z,41.92
2022-12-13T05:47:02.517Z,45.58
2022-12-13T05:49:31.009Z,43.13
2022-12-13T05:51:58.640Z,42.60
2022-12-13T05:54:26.121Z,45.22
2022-12-13T05:56:53.588Z,41.85
2022-12-13T05:59:22.311Z,37.70
2022-12-13T06:01:49.829Z,37.33
2022-12-13T06:04:22.841Z,40.70
2022-12-13T06:06:51.972Z,36.00
2022-12-13T06:09:20.719Z,32.85
2022-12-13T06:11:49.210Z,33.25
2022-12-13T06:14:22.854Z,39.60
2022-12-13T06:16:52.822Z,34.65
2022-12-13T06:19:21.672Z,34.15
2022-12-13T06:21:50.625Z,42.97
2022-12-13T06:24:20.120Z,33.00
2022-12-13T06:26:48.309Z,36.38
2022-12-13T06:29:23.734Z,34.47
2022-12-13T06:32:03.069Z,32.50
2022-12-13T06:34:36.152Z,35.40
2022-12-13T06:37:06.219Z,37.67
2022-12-13T06:39:34.409Z,42.33
2022-12-13T06:42:07.228Z,41.45
2022-12-13T06:44:36.607Z,33.95
2022-12-13T06:47:11.976Z,46.20
2022-12-13T06:49:43.168Z,31.75
2022-12-13T06:52:12.980Z,38.63
2022-12-13T06:54:41.701Z,35.90
2022-12-13T06:57:09.763Z,34.40
2022-12-13T06:59:37.449Z,38.33
2022-12-13T07:02:06.183Z,34.95
2022-12-13T07:04:51.708Z,30.95
2022-12-13T07:07:19.129Z,38.55
2022-12-13T07:09:46.629Z,32.83
2022-12-13T07:12:14.059Z,37.05
2022-12-13T07:14:41.592Z,40.28
2022-12-13T07:17:09.028Z,34.03
2022-12-13T07:19:36.653Z,39.53
2022-12-13T07:22:08.128Z,38.92
2022-12-13T07:24:36.490Z,37.58
2022-12-13T07:27:04.970Z,36.92
2022-12-13T07:29:32.569Z,38.72
2022-12-13T07:32:01.298Z,30.75
2022-12-13T07:34:30.794Z,33.17
2022-12-13T07:36:58.429Z,33.83
2022-12-13T07:39:26.575Z,39.45
2022-12-13T07:41:56.362Z,32.55
2022-12-13T07:44:24.765Z,33.13
2022-12-13T07:46:52.922Z,33.30
2022-12-13T07:49:20.860Z,30.98
2022-12-13T07:51:48.326Z,35.42
2022-12-13T07:54:15.953Z,32.65
2022-12-13T07:59:28.433Z,32.55
2022-12-13T08:01:56.595Z,33.38
2022-12-13T08:04:24.187Z,35.53
2022-12-13T08:06:51.690Z,37.63
2022-12-13T08:09:19.169Z,31.27
2022-12-13T08:11:47.210Z,37.08
2022-12-13T08:14:14.641Z,39.33
2022-12-13T08:16:42.243Z,44.10
2022-12-13T08:19:10.509Z,39.17
2022-12-13T08:21:57.839Z,41.13
2022-12-13T08:24:27.926Z,42.05
2022-12-13T08:27:01.567Z,44.70
2022-12-13T08:29:35.911Z,43.67
2022-12-13T08:32:12.521Z,48.42
2022-12-13T08:34:41.528Z,44.58
2022-12-13T08:37:09.149Z,50.13
2022-12-13T08:39:37.900Z,48.03
2022-12-13T08:42:16.811Z,44.17
2022-12-13T08:44:47.970Z,46.65
2022-12-13T08:47:24.596Z,48.38
2022-12-13T08:50:01.933Z,53.60
2022-12-13T08:52:39.218Z,45.85
2022-12-13T08:55:13.273Z,47.03
2022-12-13T08:57:42.110Z,49.47
2022-12-13T09:00:14.963Z,52.30
2022-12-13T09:02:42.616Z,46.50
2022-12-13T09:05:11.570Z,50.97
2022-12-13T09:07:43.559Z,42.08
2022-12-13T09:10:27.293Z,42.03
2022-12-13T09:13:01.743Z,45.53
2022-12-13T09:15:34.536Z,46.38
2022-12-13T09:18:04.288Z,42.72
2022-12-13T09:20:41.288Z,44.45
2022-12-13T09:23:14.273Z,42.13
2022-12-13T09:28:40.663Z,44.13
2022-12-13T09:31:16.904Z,48.45
2022-12-13T09:33:45.549Z,45.88
2022-12-13T09:36:20.570Z,42.67
2022-12-13T09:38:48.789Z,47.17
2022-12-13T09:41:40.654Z,47.67
2022-12-13T09:44:31.213Z,44.92
2022-12-13T09:47:04.305Z,49.35
2022-12-13T09:49:52.502Z,43.65
2022-12-13T09:52:23.913Z,41.92
2022-12-13T09:54:57.793Z,45.10
2022-12-13T09:57:33.789Z,49.05
2022-12-13T10:00:13.711Z,41.60
2022-12-13T10:02:59.003Z,46.97
2022-12-13T10:05:37.321Z,47.55
2022-12-13T10:08:08.460Z,53.70
2022-12-13T10:10:35.881Z,58.47
2022-12-13T10:13:19.683Z,55.45
2022-12-13T10:15:52.189Z,61.50
2022-12-13T10:18:36.693Z,50.78
2022-12-13T10:21:10.061Z,51.03
2022-12-13T10:23:59.930Z,58.88
2022-12-13T10:26:25.414Z,55.95
2022-12-13T10:29:04.479Z,59.20
2022-12-13T10:31:40.956Z,54.88
2022-12-13T10:34:28.694Z,53.42
2022-12-13T10:36:59.531Z,57.38
2022-12-13T10:39:44.072Z,50.60
2022-12-13T10:42:22.507Z,50.28
2022-12-13T10:45:23.366Z,48.67
2022-12-13T10:47:52.870Z,57.88
2022-12-13T10:50:30.491Z,56.78
2022-12-13T10:53:00.400Z,56.90
2022-12-13T10:55:40.640Z,51.35
2022-12-13T10:58:18.537Z,55.70
2022-12-13T11:00:49.491Z,57.70
2022-12-13T11:03:34.399Z,56.88
2022-12-13T11:06:16.008Z,57.13
2022-12-13T11:08:43.377Z,48.60
2022-12-13T11:11:12.560Z,52.60
2022-12-13T11:13:46.727Z,58.22
2022-12-13T11:16:23.393Z,56.90
2022-12-13T11:19:11.943Z,54.15
2022-12-13T11:21:39.838Z,59.00
2022-12-13T11:26:56.870Z,46.83
2022-12-13T11:29:33.268Z,55.30
2022-12-13T11:32:27.141Z,50.20
2022-12-13T11:35:22.778Z,45.65
2022-12-13T11:38:05.258Z,46.55
2022-12-13T11:40:37.737Z,42.60
2022-12-13T11:43:21.398Z,51.80
2022-12-13T11:45:56.098Z,52.80
2022-12-13T11:48:59.507Z,47.22
2022-12-13T11:51:36.198Z,38.15
2022-12-13T11:54:23.861Z,45.15
2022-12-13T11:57:00.687Z,51.13
2022-12-13T11:59:45.367Z,42.42
2022-12-13T12:02:28.643Z,40.03
2022-12-13T12:05:00.797Z,49.20
2022-12-13T12:07:58.348Z,42.75
2022-12-13T12:10:49.090Z,39.85
2022-12-13T12:13:33.575Z,35.03
2022-12-13T12:16:13.083Z,40.17
2022-12-13T12:18:40.598Z,41.65
2022-12-13T12:21:42.462Z,34.83
2022-12-13T12:24:45.278Z,36.13
2022-12-13T12:27:24.771Z,31.45
2022-12-13T12:30:03.989Z,35.58
2022-12-13T12:32:41.628Z,31.30
2022-12-13T12:35:30.078Z,32.72
2022-12-13T12:38:23.934Z,29.95
2022-12-13T12:41:18.334Z,33.20
2022-12-13T12:47:38.248Z,35.72
2022-12-13T12:50:26.438Z,30.25
2022-12-13T12:55:57.588Z,40.72
2022-12-13T12:58:50.877Z,36.78
2022-12-13T13:01:55.414Z,38.47
2022-12-13T13:04:30.277Z,35.30
2022-12-13T13:07:23.531Z,33.85
2022-12-13T13:09:54.656Z,28.48
2022-12-13T13:12:28.866Z,42.55
2022-12-13T13:14:58.470Z,40.92
2022-12-13T13:17:45.417Z,42.90
2022-12-13T13:20:18.547Z,40.90
2022-12-13T13:22:58.473Z,42.40
2022-12-13T13:25:43.965Z,34.95
2022-12-13T13:28:22.997Z,31.77
2022-12-13T13:31:09.483Z,37.83
2022-12-13T13:33:51.347Z,27.88
2022-12-13T13:36:41.414Z,29.90
2022-12-13T13:39:27.421Z,29.88
2022-12-13T13:41:55.559Z,28.50
2022-12-13T13:44:54.635Z,29.52
2022-12-13T13:47:25.070Z,33.97
2022-12-13T13:50:04.728Z,28.95
2022-12-13T13:52:51.830Z,29.67
2022-12-13T13:55:28.380Z,27.90
2022-12-13T13:58:34.708Z,29.20
2022-12-13T14:01:20.873Z,28.33
2022-12-13T14:04:12.923Z,26.30
2022-12-13T14:07:10.728Z,28.95
2022-12-13T14:09:59.909Z,33.58
2022-12-13T14:13:04.138Z,32.90
2022-12-13T14:16:20.690Z,30.83
2022-12-13T14:19:20.675Z,28.08
2022-12-13T14:22:12.879Z,27.63
2022-12-13T14:24:43.340Z,34.03
2022-12-13T14:27:37.251Z,28.95
2022-12-13T14:30:09.620Z,28.20
2022-12-13T14:32:53.453Z,30.55
2022-12-13T14:35:32.898Z,28.73
2022-12-13T14:40:53.081Z,27.92
2022-12-13T14:43:31.509Z,35.63
2022-12-13T14:46:04.489Z,32.03
2022-12-13T14:48:36.965Z,30.70
2022-12-13T14:51:05.027Z,32.42
2022-12-13T14:53:41.440Z,37.28
2022-12-13T14:56:27.804Z,33.85
2022-12-13T14:59:11.708Z,29.02
2022-12-13T15:01:40.740Z,28.63
2022-12-13T15:04:19.883Z,33.00
2022-12-13T15:07:06.889Z,34.13
2022-12-13T15:09:43.247Z,28.70
2022-12-13T15:12:25.376Z,27.05
2022-12-13T15:15:05.659Z,29.38
2022-12-13T15:17:36.250Z,29.58
2022-12-13T15:20:28.938Z,27.92
2022-12-13T15:23:12.727Z,26.60
2022-12-13T15:25:56.108Z,28.40
2022-12-13T15:28:28.951Z,22.42
2022-12-13T15:30:59.129Z,29.63
2022-12-13T15:33:33.385Z,27.15
2022-12-13T15:36:09.050Z,24.02
2022-12-13T15:38:41.080Z,26.65
2022-12-13T15:41:18.168Z,28.02
2022-12-13T15:43:57.938Z,32.50
2022-12-13T15:46:33.628Z,27.90
2022-12-13T15:49:03.059Z,28.75
2022-12-13T15:51:30.985Z,27.63
2022-12-13T15:54:03.188Z,22.95
2022-12-13T15:56:50.749Z,30.63
2022-12-13T15:59:35.799Z,28.83
2022-12-13T16:02:04.439Z,26.35
2022-12-13T16:04:33.068Z,24.13
2022-12-13T16:09:42.430Z,26.95
2022-12-13T16:15:31.298Z,30.00
2022-12-13T16:18:12.839Z,29.00
2022-12-13T16:20:40.377Z,23.25
2022-12-13T16:23:08.730Z,28.92
2022-12-13T16:28:18.767Z,29.65
2022-12-13T16:30:54.968Z,25.85
2022-12-13T16:33:26.611Z,37.97
2022-12-13T16:35:56.211Z,36.08
2022-12-13T16:38:26.563Z,31.02
2022-12-13T16:41:08.740Z,28.83
2022-12-13T16:43:59.226Z,27.92
2022-12-13T16:47:14.999Z,27.77
2022-12-13T16:49:22.186Z,40.95
2022-12-13T16:51:49.792Z,27.70
2022-12-13T16:54:18.790Z,30.92
2022-12-13T16:56:46.948Z,21.70
2022-12-13T16:59:16.746Z,24.88
2022-12-13T17:01:45.419Z,34.58
2022-12-13T17:04:20.721Z,27.75
2022-12-13T17:06:51.115Z,29.70
2022-12-13T17:09:23.660Z,39.25
2022-12-13T17:12:06.632Z,31.83
2022-12-13T17:14:52.607Z,24.92
2022-12-13T17:17:37.576Z,26.67
2022-12-13T17:20:06.737Z,27.42
2022-12-13T17:22:52.836Z,21.52
2022-12-13T17:25:29.734Z,26.48
2022-12-13T17:27:57.372Z,24.20
2022-12-13T17:30:24.825Z,19.15
2022-12-13T17:32:52.274Z,21.75
2022-12-13T17:35:19.646Z,18.83
2022-12-13T17:37:47.097Z,17.17
2022-12-13T17:40:14.526Z,19.75
2022-12-13T17:42:42.016Z,16.42
2022-12-13T17:45:15.556Z,20.88
2022-12-13T17:47:43.016Z,18.40
2022-12-13T17:50:10.355Z,16.83
2022-12-13T17:52:39.626Z,19.30
2022-12-13T17:55:11.208Z,20.77
2022-12-13T17:57:42.383Z,24.73
2022-12-13T18:00:11.098Z,22.85
2022-12-13T18:02:41.258Z,16.80
2022-12-13T18:05:25.386Z,20.92
2022-12-13T18:07:52.957Z,22.27
2022-12-13T18:10:23.690Z,20.30
2022-12-13T18:12:55.337Z,19.52
2022-12-13T18:15:22.727Z,20.20
2022-12-13T18:18:12.979Z,23.63
2022-12-13T18:20:37.722Z,20.40
2022-12-13T18:23:05.076Z,20.15
2022-12-13T18:25:32.896Z,18.45
2022-12-13T18:28:01.319Z,19.42
2022-12-13T18:30:31.327Z,17.15
2022-12-13T18:32:59.386Z,16.27
2022-12-13T18:35:27.796Z,15.77
2022-12-13T18:37:55.146Z,16.60
2022-12-13T18:40:22.587Z,18.25
2022-12-13T18:42:50.316Z,22.05
2022-12-13T18:45:19.939Z,16.15
2022-12-13T18:47:47.396Z,16.00
2022-12-13T18:50:14.916Z,22.17
2022-12-13T18:52:44.174Z,18.80
2022-12-13T18:55:11.596Z,22.20
2022-12-13T18:57:39.036Z,23.08
2022-12-13T19:00:07.757Z,22.35
2022-12-13T19:02:35.447Z,23.92
2022-12-13T19:05:03.106Z,25.02
2022-12-13T19:07:30.496Z,24.88
2022-12-13T19:09:59.348Z,27.65
2022-12-13T19:12:26.966Z,19.83
2022-12-13T19:14:54.841Z,23.70
2022-12-13T19:17:22.646Z,21.75
2022-12-13T19:19:50.516Z,25.33
2022-12-13T19:22:18.006Z,21.92
2022-12-13T19:24:45.506Z,19.08
2022-12-13T19:27:12.938Z,20.10
2022-12-13T19:29:40.386Z,19.40
2022-12-13T19:34:48.919Z,20.20
2022-12-13T19:37:16.666Z,23.98
2022-12-13T19:39:44.139Z,25.42
2022-12-13T19:44:52.951Z,24.45
2022-12-13T19:47:20.327Z,18.77
2022-12-13T19:49:47.745Z,19.88
2022-12-13T19:52:15.787Z,21.30
2022-12-13T19:54:43.277Z,21.48
2022-12-13T19:57:10.628Z,19.60
2022-12-13T19:59:38.076Z,18.55
2022-12-13T20:02:06.094Z,17.45
2022-12-13T20:04:33.576Z,17.58
2022-12-13T20:07:01.429Z,20.55
2022-12-13T20:09:29.985Z,21.15
2022-12-13T20:11:57.336Z,16.27
2022-12-13T20:14:25.490Z,16.60
2022-12-13T20:16:52.926Z,15.90
2022-12-13T20:19:20.356Z,13.90
2022-12-13T20:21:51.139Z,15.05
2022-12-13T20:24:22.570Z,16.13
2022-12-13T20:26:49.947Z,12.80
2022-12-13T20:32:00.190Z,14.70
2022-12-13T20:34:28.628Z,13.05
2022-12-13T20:36:56.227Z,14.52
2022-12-13T20:39:23.787Z,14.38
2022-12-13T20:41:51.206Z,13.10
2022-12-13T20:44:19.174Z,16.25
2022-12-13T20:46:46.684Z,14.38
2022-12-13T20:49:14.156Z,15.82
2022-12-13T20:51:42.357Z,16.55
2022-12-13T20:54:10.049Z,13.48
2022-12-13T20:56:38.837Z,12.60
2022-12-13T20:59:07.986Z,14.55
2022-12-13T21:01:40.982Z,15.57
2022-12-13T21:04:10.476Z,18.83
2022-12-13T21:06:40.976Z,15.70
2022-12-13T21:09:09.687Z,19.90
2022-12-13T21:11:42.886Z,14.18
2022-12-13T21:14:20.841Z,16.75
2022-12-13T21:16:51.669Z,15.05
2022-12-13T21:19:24.587Z,12.90
2022-12-13T21:21:52.977Z,14.77
2022-12-13T21:24:22.207Z,13.68
2022-12-13T21:26:51.353Z,17.33
2022-12-13T21:29:19.479Z,13.80
2022-12-13T21:31:50.177Z,14.73
2022-12-13T21:34:19.324Z,14.05
2022-12-13T21:36:49.166Z,16.25
2022-12-13T21:39:27.993Z,13.90
2022-12-13T21:41:55.967Z,15.95
2022-12-13T21:44:23.868Z,16.17
2022-12-13T21:49:39.148Z,21.45
2022-12-13T21:52:06.467Z,15.80
2022-12-13T21:54:33.986Z,15.90
2022-12-13T21:57:19.675Z,12.30
2022-12-13T21:59:47.095Z,16.80
2022-12-13T22:02:18.547Z,14.95
2022-12-13T22:04:48.817Z,12.35
2022-12-13T22:07:24.217Z,18.58
2022-12-13T22:09:53.356Z,18.60
2022-12-13T22:12:24.388Z,23.45
2022-12-13T22:14:52.867Z,23.27
2022-12-13T22:17:26.888Z,19.98
2022-12-13T22:19:58.848Z,19.13
2022-12-13T22:22:26.787Z,17.30
2022-12-13T22:24:54.306Z,18.88
2022-12-13T22:27:25.920Z,21.30
2022-12-13T22:29:57.651Z,21.00
2022-12-13T22:32:30.106Z,21.88
2022-12-13T22:34:57.803Z,20.60
2022-12-13T22:37:25.425Z,17.95
2022-12-13T22:39:52.918Z,14.13
2022-12-13T22:42:20.693Z,25.75
2022-12-13T22:44:48.349Z,17.70
2022-12-13T22:47:15.826Z,15.93
2022-12-13T22:49:42.963Z,14.65
2022-12-13T22:52:10.173Z,14.40
2022-12-13T22:54:37.423Z,18.95
2022-12-13T22:57:04.669Z,19.67
2022-12-13T22:59:31.902Z,16.67
2022-12-13T23:02:02.638Z,16.35
2022-12-13T23:04:33.034Z,17.52
2022-12-13T23:07:00.295Z,17.65
2022-12-13T23:09:27.540Z,18.17
2022-12-13T23:12:13.299Z,25.23
2022-12-13T23:14:40.604Z,19.10
2022-12-13T23:17:07.835Z,18.02
2022-12-13T23:19:49.825Z,16.58
2022-12-13T23:22:23.329Z,19.77
2022-12-13T23:24:51.898Z,22.85
2022-12-13T23:27:21.075Z,17.98
2022-12-13T23:29:48.437Z,20.00
2022-12-13T23:32:15.728Z,25.65
2022-12-13T23:34:42.974Z,18.98
2022-12-13T23:37:10.144Z,26.38
2022-12-13T23:39:37.383Z,17.08
2022-12-13T23:44:45.594Z,22.27
2022-12-13T23:47:12.737Z,23.85
2022-12-13T23:49:39.935Z,21.42
2022-12-13T23:52:07.117Z,18.60
2022-12-13T23:54:34.325Z,22.08
2022-12-13T23:57:01.444Z,22.10
2022-12-13T23:59:28.710Z,22.60
